Time;durP1;ratioP1;P1;durP2;ratioP2;P2;SDS_P1;SDS_P2;PMS_P1;PMS_P2;Temp;Humidity;BMP_temperature;BMP_pressure;BME280_temperature;BME280_humidity;BME280_pressure;Samples;Min_cycle;Max_cycle;Signal;HPM_P1;HPM_P2
2023/04/01 00:02:15;;;;;;;5.93;2.00;;;8.90;99.90;;;;;;5054714;28;20450;-62
2023/04/01 00:04:42;;;;;;;5.90;2.60;;;8.90;99.90;;;;;;5057654;28;20541;-63
2023/04/01 00:07:10;;;;;;;4.27;1.60;;;8.80;99.90;;;;;;5057338;28;20516;-63
2023/04/01 00:09:39;;;;;;;2.97;1.67;;;8.90;99.90;;;;;;5057055;28;20466;-62
2023/04/01 00:12:06;;;;;;;3.53;2.07;;;8.90;99.90;;;;;;5057185;28;20896;-63
2023/04/01 00:14:34;;;;;;;4.40;2.70;;;8.90;99.90;;;;;;5057532;28;20549;-63
2023/04/01 00:17:01;;;;;;;3.20;1.77;;;8.90;99.90;;;;;;5056674;28;20458;-63
2023/04/01 00:19:29;;;;;;;2.57;1.67;;;8.80;99.90;;;;;;5056703;28;20501;-63
2023/04/01 00:21:57;;;;;;;5.57;1.70;;;8.90;99.90;;;;;;5057045;28;20771;-63
2023/04/01 00:24:24;;;;;;;2.10;1.70;;;8.80;99.90;;;;;;5056971;28;20549;-63
2023/04/01 00:26:52;;;;;;;2.57;1.90;;;8.80;99.90;;;;;;5057004;28;20455;-63
2023/04/01 00:29:19;;;;;;;3.00;1.40;;;8.80;99.90;;;;;;5056932;28;20462;-62
2023/04/01 00:31:48;;;;;;;3.27;1.77;;;8.80;99.90;;;;;;5056974;28;20546;-63
2023/04/01 00:34:15;;;;;;;2.37;2.00;;;8.70;99.90;;;;;;5054802;28;20466;-63
2023/04/01 00:36:42;;;;;;;2.67;1.57;;;8.70;99.90;;;;;;5057100;28;20454;-63
2023/04/01 00:39:09;;;;;;;3.63;1.73;;;8.70;99.90;;;;;;5057435;28;20481;-63
2023/04/01 00:41:37;;;;;;;2.90;1.93;;;8.70;99.90;;;;;;5057037;28;20462;-63
2023/04/01 00:44:19;;;;;;;2.93;2.73;;;8.70;99.90;;;;;;5056925;28;20458;-63
2023/04/01 00:46:46;;;;;;;2.87;1.50;;;8.70;99.90;;;;;;5057172;28;20512;-62
2023/04/01 00:49:14;;;;;;;3.20;1.70;;;8.70;99.90;;;;;;5058343;28;20472;-63
2023/04/01 00:51:43;;;;;;;4.27;2.03;;;8.70;99.90;;;;;;5058484;28;20463;-63
2023/04/01 00:54:11;;;;;;;4.50;1.80;;;8.70;99.90;;;;;;5058561;28;20462;-63
2023/04/01 00:56:41;;;;;;;2.63;1.77;;;8.70;99.90;;;;;;5058837;28;20454;-63
2023/04/01 00:59:12;;;;;;;2.77;1.90;;;8.70;99.90;;;;;;5059119;28;20473;-63
2023/04/01 01:01:41;;;;;;;2.80;1.77;;;8.70;99.90;;;;;;5058326;28;20490;-64
2023/04/01 01:04:21;;;;;;;4.03;2.03;;;8.70;99.90;;;;;;5057831;28;20462;-64
2023/04/01 01:06:55;;;;;;;2.73;1.73;;;8.80;99.90;;;;;;5058538;28;20462;-64
2023/04/01 01:09:38;;;;;;;3.07;1.63;;;8.80;99.90;;;;;;5057798;28;20489;-65
2023/04/01 01:12:12;;;;;;;3.60;1.80;;;8.80;99.90;;;;;;5058067;28;20462;-63
2023/04/01 01:14:52;;;;;;;3.47;1.90;;;8.80;99.90;;;;;;5057915;28;20462;-63
2023/04/01 01:17:33;;;;;;;3.10;1.70;;;8.80;99.90;;;;;;5058434;28;20462;-62
2023/04/01 01:20:41;;;;;;;4.00;1.80;;;8.80;99.90;;;;;;5057839;28;20468;-62
2023/04/01 01:23:43;;;;;;;4.00;2.10;;;8.80;99.90;;;;;;5019473;28;20458;-63
2023/04/01 01:26:46;;;;;;;12.73;2.20;;;8.80;99.90;;;;;;5057269;28;20458;-63
2023/04/01 01:29:38;;;;;;;2.93;1.57;;;8.80;99.90;;;;;;5026621;28;20564;-64
2023/04/01 01:32:13;;;;;;;5.53;2.47;;;8.80;99.90;;;;;;5057621;28;20466;-64
2023/04/01 01:34:50;;;;;;;5.03;2.10;;;8.80;99.90;;;;;;5057066;28;20465;-63
2023/04/01 01:37:21;;;;;;;2.97;1.60;;;8.70;99.90;;;;;;5057079;28;20948;-60
2023/04/01 01:39:54;;;;;;;4.77;2.20;;;8.70;99.90;;;;;;5057221;28;20779;-63
2023/04/01 01:42:25;;;;;;;3.90;1.60;;;8.70;99.90;;;;;;5057043;28;20466;-64
2023/04/01 01:44:54;;;;;;;2.97;1.73;;;8.70;99.90;;;;;;5057394;28;20489;-63
2023/04/01 01:47:23;;;;;;;3.03;1.90;;;8.70;99.90;;;;;;5057532;28;20476;-63
2023/04/01 01:49:52;;;;;;;3.67;1.60;;;8.70;99.90;;;;;;5056723;28;20454;-60
2023/04/01 01:52:20;;;;;;;3.07;1.40;;;8.60;99.90;;;;;;5057416;28;20466;-63
2023/04/01 01:54:49;;;;;;;3.00;1.80;;;8.60;99.90;;;;;;5057356;28;20472;-63
2023/04/01 01:57:17;;;;;;;2.83;1.60;;;8.60;99.90;;;;;;5056851;28;20464;-63
2023/04/01 01:59:46;;;;;;;3.30;1.50;;;8.70;99.90;;;;;;5056570;28;20437;-62
2023/04/01 02:02:16;;;;;;;3.13;1.90;;;8.70;99.90;;;;;;5056728;28;20437;-63
2023/04/01 02:04:47;;;;;;;6.40;2.07;;;8.70;99.90;;;;;;5056478;28;20462;-63
2023/04/01 02:07:19;;;;;;;3.50;2.00;;;8.70;99.90;;;;;;5057328;28;20473;-62
2023/04/01 02:09:48;;;;;;;3.17;1.73;;;8.70;99.90;;;;;;5056517;28;20466;-63
2023/04/01 02:12:17;;;;;;;2.90;2.20;;;8.70;99.90;;;;;;5049185;28;20500;-62
2023/04/01 02:14:50;;;;;;;2.50;1.83;;;8.70;99.90;;;;;;5045214;28;20478;-63
2023/04/01 02:17:19;;;;;;;3.40;2.10;;;8.70;99.90;;;;;;5050308;28;20810;-63
2023/04/01 02:19:51;;;;;;;4.00;1.80;;;8.70;99.90;;;;;;5053774;28;20470;-63
2023/04/01 02:22:22;;;;;;;3.00;1.93;;;8.70;99.90;;;;;;5058871;28;20468;-63
2023/04/01 02:24:54;;;;;;;5.33;1.83;;;8.60;99.90;;;;;;5059747;28;20889;-60
2023/04/01 02:27:21;;;;;;;3.40;1.47;;;8.60;99.90;;;;;;5058426;28;20881;-63
2023/04/01 02:29:49;;;;;;;2.30;1.50;;;8.60;99.90;;;;;;5050495;28;20732;-63
2023/04/01 02:32:17;;;;;;;4.03;1.77;;;8.60;99.90;;;;;;5054198;28;20979;-63
2023/04/01 02:34:44;;;;;;;3.17;1.97;;;8.60;99.90;;;;;;5057945;28;20474;-63
2023/04/01 02:37:13;;;;;;;6.13;2.10;;;8.70;99.90;;;;;;5056202;28;20480;-63
2023/04/01 02:39:40;;;;;;;2.67;1.93;;;8.60;99.90;;;;;;5056123;28;20961;-63
2023/04/01 02:42:08;;;;;;;2.50;1.70;;;8.60;99.90;;;;;;5057158;28;20485;-63
2023/04/01 02:44:36;;;;;;;3.10;1.57;;;8.60;99.90;;;;;;5055868;28;20472;-62
2023/04/01 02:47:03;;;;;;;2.57;1.80;;;8.70;99.90;;;;;;5056651;28;20472;-63
2023/04/01 02:49:30;;;;;;;2.53;1.40;;;8.60;99.90;;;;;;5053555;28;20470;-62
2023/04/01 02:51:57;;;;;;;2.97;1.53;;;8.60;99.90;;;;;;5057643;28;20465;-62
2023/04/01 02:54:24;;;;;;;2.50;1.87;;;8.60;99.90;;;;;;5056835;28;20908;-63
2023/04/01 02:56:52;;;;;;;2.47;1.60;;;8.50;99.90;;;;;;5058075;28;20477;-63
2023/04/01 02:59:20;;;;;;;2.40;1.67;;;8.60;99.90;;;;;;5057475;28;20887;-62
2023/04/01 03:01:47;;;;;;;2.13;1.23;;;8.60;99.90;;;;;;5056240;28;20787;-62
2023/04/01 03:04:14;;;;;;;2.30;1.67;;;8.50;99.90;;;;;;5058454;28;20476;-63
2023/04/01 03:06:41;;;;;;;4.93;1.63;;;8.50;99.90;;;;;;5052203;28;20505;-61
2023/04/01 03:09:08;;;;;;;5.33;1.50;;;8.40;99.90;;;;;;5049057;28;20904;-61
2023/04/01 03:11:36;;;;;;;2.73;1.70;;;8.50;99.90;;;;;;5056649;28;20469;-62
2023/04/01 03:14:03;;;;;;;2.50;1.30;;;8.40;99.90;;;;;;5057585;28;20778;-62
2023/04/01 03:16:32;;;;;;;2.33;1.63;;;8.40;99.90;;;;;;5047842;28;20478;-63
2023/04/01 03:19:01;;;;;;;3.20;1.50;;;8.40;99.90;;;;;;5060686;28;20462;-62
2023/04/01 03:21:29;;;;;;;3.90;1.70;;;8.40;99.90;;;;;;5059936;28;20811;-62
2023/04/01 03:23:56;;;;;;;2.77;1.43;;;8.30;99.90;;;;;;5060189;28;20466;-63
2023/04/01 03:26:23;;;;;;;3.50;1.60;;;8.30;99.90;;;;;;5060613;28;20565;-62
2023/04/01 03:28:50;;;;;;;2.77;1.60;;;8.30;99.90;;;;;;5060102;28;20763;-61
2023/04/01 03:31:17;;;;;;;8.40;1.50;;;8.30;99.90;;;;;;5060311;28;20891;-62
2023/04/01 03:33:47;;;;;;;4.57;1.70;;;8.30;99.90;;;;;;5059019;28;20465;-62
2023/04/01 03:36:15;;;;;;;2.10;1.60;;;8.30;99.90;;;;;;5059778;28;20472;-62
2023/04/01 03:38:43;;;;;;;2.30;1.60;;;8.30;99.90;;;;;;5059701;28;20935;-63
2023/04/01 03:41:13;;;;;;;2.50;1.73;;;8.30;99.90;;;;;;5058908;28;20494;-63
2023/04/01 03:43:40;;;;;;;3.17;1.93;;;8.30;99.90;;;;;;5059310;28;20544;-63
2023/04/01 03:46:08;;;;;;;3.53;1.70;;;8.30;99.90;;;;;;5059370;28;20463;-64
2023/04/01 03:48:35;;;;;;;3.10;2.27;;;8.30;99.90;;;;;;5059033;28;20469;-66
2023/04/01 03:51:08;;;;;;;3.37;2.23;;;8.40;99.90;;;;;;5059083;28;20768;-64
2023/04/01 03:53:35;;;;;;;3.33;2.30;;;8.40;99.90;;;;;;5059111;28;20888;-59
2023/04/01 03:56:05;;;;;;;3.07;2.07;;;8.40;99.90;;;;;;5058664;28;20465;-64
2023/04/01 03:58:32;;;;;;;5.17;2.20;;;8.40;99.90;;;;;;5059161;28;20437;-64
2023/04/01 04:01:00;;;;;;;2.53;1.80;;;8.40;99.90;;;;;;5058948;28;20561;-63
2023/04/01 04:03:27;;;;;;;3.73;2.10;;;8.40;99.90;;;;;;5058549;28;20956;-64
2023/04/01 04:05:55;;;;;;;2.60;1.70;;;8.40;99.90;;;;;;5058668;28;20524;-63
2023/04/01 04:08:24;;;;;;;4.70;2.00;;;8.40;99.90;;;;;;5059306;28;20484;-65
2023/04/01 04:10:56;;;;;;;3.23;2.00;;;8.40;99.90;;;;;;5059309;28;20465;-66
2023/04/01 04:13:23;;;;;;;3.00;2.67;;;8.40;99.90;;;;;;5058088;28;20466;-65
2023/04/01 04:15:50;;;;;;;2.70;2.50;;;8.50;99.90;;;;;;5058215;28;20466;-66
2023/04/01 04:18:18;;;;;;;5.90;2.73;;;8.50;99.90;;;;;;5058191;28;20462;-66
2023/04/01 04:20:48;;;;;;;3.20;2.73;;;8.50;99.90;;;;;;5058424;28;20464;-67
2023/04/01 04:23:15;;;;;;;2.90;2.60;;;8.50;99.90;;;;;;5058955;28;20880;-66
2023/04/01 04:25:54;;;;;;;3.23;2.70;;;8.50;99.90;;;;;;5058267;28;20901;-66
2023/04/01 04:28:22;;;;;;;2.80;2.60;;;8.50;99.90;;;;;;5058363;28;20927;-63
2023/04/01 04:30:49;;;;;;;2.60;2.17;;;8.60;99.90;;;;;;5058305;28;20466;-66
2023/04/01 04:33:16;;;;;;;3.20;2.20;;;8.60;99.90;;;;;;5058179;28;20751;-64
2023/04/01 04:35:43;;;;;;;4.53;2.87;;;8.60;99.90;;;;;;5058320;28;20466;-66
2023/04/01 04:38:10;;;;;;;2.90;2.50;;;8.60;99.90;;;;;;5057841;28;20496;-65
2023/04/01 04:40:37;;;;;;;2.40;2.20;;;8.60;99.90;;;;;;5058357;28;20436;-66
2023/04/01 04:43:06;;;;;;;3.33;2.73;;;8.60;99.90;;;;;;5058011;28;20469;-67
2023/04/01 04:45:34;;;;;;;3.53;2.93;;;8.60;99.90;;;;;;5058104;28;20466;-65
2023/04/01 04:48:01;;;;;;;3.33;3.03;;;8.60;99.90;;;;;;5057745;28;20926;-66
2023/04/01 04:50:28;;;;;;;2.90;2.60;;;8.60;99.90;;;;;;5057827;28;20447;-66
2023/04/01 04:52:55;;;;;;;2.77;2.47;;;8.60;99.90;;;;;;5057773;28;20477;-64
2023/04/01 04:55:22;;;;;;;3.37;2.80;;;8.70;99.90;;;;;;5057824;28;20458;-64
2023/04/01 04:57:50;;;;;;;2.97;2.67;;;8.70;99.90;;;;;;5057528;28;20462;-63
2023/04/01 05:00:19;;;;;;;3.50;2.43;;;8.70;99.90;;;;;;5056405;28;20462;-63
2023/04/01 05:02:46;;;;;;;3.00;2.30;;;8.70;99.90;;;;;;5057832;28;20516;-63
2023/04/01 05:05:13;;;;;;;2.97;2.20;;;8.60;99.90;;;;;;5057074;28;20441;-63
2023/04/01 05:07:40;;;;;;;2.53;2.03;;;8.60;99.90;;;;;;5057906;28;20835;-63
2023/04/01 05:10:08;;;;;;;3.20;2.73;;;8.60;99.90;;;;;;5057596;28;20465;-64
2023/04/01 05:12:38;;;;;;;6.13;3.17;;;8.60;99.90;;;;;;5057099;28;20458;-64
2023/04/01 05:15:06;;;;;;;2.80;2.60;;;8.60;99.90;;;;;;5057669;28;20580;-64
2023/04/01 05:17:35;;;;;;;2.73;2.40;;;8.70;99.90;;;;;;5057594;28;20468;-63
2023/04/01 05:20:03;;;;;;;2.73;2.47;;;8.70;99.90;;;;;;5057388;28;20469;-63
2023/04/01 05:22:33;;;;;;;2.60;2.20;;;8.70;99.90;;;;;;5057246;28;20494;-63
2023/04/01 05:25:00;;;;;;;3.37;2.50;;;8.80;99.90;;;;;;5057346;28;20472;-62
2023/04/01 05:27:27;;;;;;;2.50;2.30;;;8.80;99.90;;;;;;5057191;28;20819;-63
2023/04/01 05:29:54;;;;;;;3.00;2.53;;;8.70;99.90;;;;;;5056955;28;20481;-63
2023/04/01 05:32:22;;;;;;;3.37;2.60;;;8.80;99.90;;;;;;5056873;28;20463;-63
2023/04/01 05:34:53;;;;;;;3.07;2.77;;;8.80;99.90;;;;;;5057152;28;20481;-64
2023/04/01 05:37:23;;;;;;;4.37;3.70;;;8.80;99.90;;;;;;5056425;28;20494;-63
2023/04/01 05:39:50;;;;;;;2.80;2.27;;;8.80;99.90;;;;;;5057505;28;20524;-66
2023/04/01 05:42:18;;;;;;;4.63;3.53;;;8.80;99.90;;;;;;5057193;28;20490;-66
2023/04/01 05:44:45;;;;;;;2.87;2.67;;;8.80;99.90;;;;;;5057364;28;20463;-66
2023/04/01 05:47:12;;;;;;;3.23;2.87;;;8.80;99.90;;;;;;5056884;28;20469;-66
2023/04/01 05:49:39;;;;;;;4.20;3.30;;;8.80;99.90;;;;;;5057356;28;20473;-65
2023/04/01 05:52:08;;;;;;;2.93;2.23;;;8.80;99.90;;;;;;5056473;28;20557;-66
2023/04/01 05:54:35;;;;;;;2.73;2.43;;;8.80;99.90;;;;;;5054851;28;20474;-66
2023/04/01 05:57:03;;;;;;;2.87;2.20;;;8.80;99.90;;;;;;5054258;28;20545;-65
2023/04/01 05:59:31;;;;;;;2.40;2.10;;;8.80;99.90;;;;;;5055289;28;20468;-66
2023/04/01 06:01:58;;;;;;;3.40;2.27;;;8.80;99.90;;;;;;5055592;28;21073;-66
2023/04/01 06:04:25;;;;;;;3.00;2.70;;;8.90;99.90;;;;;;5055868;28;20918;-65
2023/04/01 06:06:52;;;;;;;2.50;1.70;;;8.90;99.90;;;;;;5055711;28;20465;-67
2023/04/01 06:09:27;;;;;;;2.47;2.07;;;8.90;99.90;;;;;;5056367;28;20469;-67
2023/04/01 06:12:26;;;;;;;2.30;2.00;;;8.90;99.90;;;;;;5057184;28;20460;-66
2023/04/01 06:14:59;;;;;;;2.40;1.60;;;8.80;99.90;;;;;;5016075;28;20462;-66
2023/04/01 06:17:37;;;;;;;4.10;1.90;;;8.90;99.90;;;;;;5055688;28;20577;-66
2023/04/01 06:20:17;;;;;;;4.20;1.80;;;8.90;99.90;;;;;;5055833;28;20462;-66
2023/04/01 06:23:09;;;;;;;2.43;1.60;;;8.90;99.90;;;;;;5055092;28;20493;-66
2023/04/01 06:25:51;;;;;;;2.07;1.70;;;8.90;99.90;;;;;;5055074;28;20462;-65
2023/04/01 06:28:47;;;;;;;3.07;1.70;;;8.90;99.90;;;;;;5055370;28;20461;-63
2023/04/01 06:31:36;;;;;;;2.10;1.50;;;8.90;99.90;;;;;;5056977;28;20465;-64
2023/04/01 06:34:19;;;;;;;4.50;2.63;;;8.80;99.90;;;;;;5056612;28;20474;-65
2023/04/01 06:37:05;;;;;;;3.63;2.00;;;8.90;99.90;;;;;;5056472;28;20494;-65
2023/04/01 06:39:58;;;;;;;3.30;1.67;;;8.90;99.90;;;;;;5056665;28;20473;-65
2023/04/01 06:42:55;;;;;;;2.37;1.93;;;9.00;99.90;;;;;;5056545;28;20504;-65
2023/04/01 06:45:36;;;;;;;2.50;1.50;;;9.00;99.90;;;;;;5057013;28;20556;-65
2023/04/01 06:48:26;;;;;;;3.00;2.13;;;8.90;99.90;;;;;;5056601;28;20458;-65
2023/04/01 06:50:59;;;;;;;2.27;1.90;;;8.90;99.90;;;;;;5056370;28;20464;-65
2023/04/01 06:53:33;;;;;;;3.03;2.30;;;8.90;99.90;;;;;;5056763;28;20459;-65
2023/04/01 06:56:07;;;;;;;2.70;2.17;;;8.90;99.90;;;;;;5056481;28;20469;-66
2023/04/01 06:58:40;;;;;;;3.47;2.17;;;8.90;99.90;;;;;;5056270;28;20556;-68
2023/04/01 07:01:11;;;;;;;3.00;2.43;;;8.90;99.90;;;;;;5056940;28;20436;-69
2023/04/01 07:03:43;;;;;;;2.53;2.03;;;8.90;99.90;;;;;;5057026;28;20464;-68
2023/04/01 07:06:15;;;;;;;2.97;2.40;;;8.80;99.90;;;;;;5056237;28;20461;-66
2023/04/01 07:08:45;;;;;;;2.70;2.30;;;8.90;99.90;;;;;;5057118;28;20462;-66
2023/04/01 07:11:22;;;;;;;2.40;1.60;;;8.90;99.90;;;;;;5059972;28;20480;-66
2023/04/01 07:13:54;;;;;;;2.30;2.00;;;8.90;99.90;;;;;;5060124;28;20894;-65
2023/04/01 07:16:26;;;;;;;2.87;2.10;;;9.00;99.90;;;;;;5059537;28;20469;-66
2023/04/01 07:18:59;;;;;;;2.20;1.60;;;9.10;99.90;;;;;;5059020;28;20462;-65
2023/04/01 07:21:30;;;;;;;2.23;1.60;;;9.10;99.90;;;;;;5060018;28;20468;-66
2023/04/01 07:24:04;;;;;;;1.97;1.43;;;9.20;99.90;;;;;;5059895;28;20462;-66
2023/04/01 07:26:31;;;;;;;3.10;2.13;;;9.20;99.90;;;;;;5059900;28;20549;-66
2023/04/01 07:29:00;;;;;;;2.30;1.87;;;9.10;99.90;;;;;;5059774;28;20901;-66
2023/04/01 07:31:46;;;;;;;2.20;1.70;;;9.10;99.90;;;;;;5059599;28;20745;-66
2023/04/01 07:34:20;;;;;;;2.00;1.50;;;9.10;99.90;;;;;;5059615;28;20462;-66
2023/04/01 07:36:54;;;;;;;2.50;1.90;;;9.00;99.90;;;;;;5059029;28;20467;-65
2023/04/01 07:39:34;;;;;;;2.10;1.87;;;9.10;99.90;;;;;;5059666;28;20557;-66
2023/04/01 07:42:10;;;;;;;2.83;1.70;;;9.10;99.90;;;;;;5059692;28;20567;-66
2023/04/01 07:44:50;;;;;;;3.47;2.13;;;9.10;99.90;;;;;;5059331;28;20802;-66
2023/04/01 07:47:32;;;;;;;2.57;1.93;;;9.10;99.90;;;;;;5059823;28;20461;-65
2023/04/01 07:50:09;;;;;;;2.43;1.90;;;9.10;99.90;;;;;;5059396;28;20470;-65
2023/04/01 07:52:44;;;;;;;4.03;1.90;;;9.10;99.90;;;;;;5058572;28;20468;-66
2023/04/01 07:55:16;;;;;;;3.43;1.87;;;9.20;99.90;;;;;;5057976;28;20454;-66
2023/04/01 07:57:51;;;;;;;2.40;1.90;;;9.10;99.90;;;;;;5058414;28;20454;-66
2023/04/01 08:00:24;;;;;;;3.40;2.30;;;9.20;99.90;;;;;;5058758;28;20886;-66
2023/04/01 08:03:12;;;;;;;2.90;2.30;;;9.20;99.90;;;;;;5056081;28;20483;-66
2023/04/01 08:05:49;;;;;;;3.23;2.93;;;9.20;99.90;;;;;;5056979;28;20456;-66
2023/04/01 08:08:27;;;;;;;2.73;2.50;;;9.20;99.90;;;;;;5056952;28;20760;-66
2023/04/01 08:11:00;;;;;;;3.80;2.97;;;9.20;99.90;;;;;;5056088;28;20512;-65
2023/04/01 08:13:38;;;;;;;2.97;2.60;;;9.20;99.90;;;;;;5055604;28;20478;-66
2023/04/01 08:16:16;;;;;;;3.10;2.80;;;9.10;99.90;;;;;;5057928;28;20451;-66
2023/04/01 08:18:54;;;;;;;3.53;3.20;;;9.10;99.90;;;;;;5057592;28;20715;-67
2023/04/01 08:21:26;;;;;;;3.00;2.67;;;9.20;99.90;;;;;;5057445;28;21065;-67
2023/04/01 08:23:55;;;;;;;4.60;2.73;;;9.30;99.90;;;;;;5055587;28;20490;-67
2023/04/01 08:26:31;;;;;;;3.10;2.80;;;9.20;99.90;;;;;;5056940;28;20459;-68
2023/04/01 08:29:03;;;;;;;3.50;3.00;;;9.20;99.90;;;;;;5058145;28;20466;-66
2023/04/01 08:31:37;;;;;;;3.00;2.70;;;9.30;99.90;;;;;;5056978;28;20512;-67
2023/04/01 08:34:10;;;;;;;3.30;2.80;;;9.20;99.90;;;;;;5057344;28;20454;-67
2023/04/01 08:36:41;;;;;;;2.67;2.33;;;9.20;99.90;;;;;;5055250;28;20454;-68
2023/04/01 08:39:12;;;;;;;2.77;2.33;;;9.20;99.90;;;;;;5058323;28;20458;-67
2023/04/01 08:42:10;;;;;;;3.17;2.80;;;9.30;99.90;;;;;;5057199;28;20853;-66
2023/04/01 08:45:07;;;;;;;3.33;2.67;;;9.20;99.90;;;;;;5051247;28;20470;-65
2023/04/01 08:47:46;;;;;;;4.40;3.10;;;9.10;99.90;;;;;;5057119;28;20458;-65
2023/04/01 08:50:45;;;;;;;2.57;2.27;;;9.20;99.90;;;;;;5058302;28;20885;-65
2023/04/01 08:53:18;;;;;;;4.90;3.00;;;9.20;99.90;;;;;;5058037;28;20461;-65
2023/04/01 08:55:57;;;;;;;3.57;3.27;;;9.20;99.90;;;;;;5056890;28;20470;-65
2023/04/01 08:58:56;;;;;;;3.00;2.50;;;9.20;99.90;;;;;;5058500;28;20461;-66
2023/04/01 09:01:36;;;;;;;3.10;2.40;;;9.20;99.90;;;;;;5057555;28;20458;-70
2023/04/01 09:04:25;;;;;;;3.37;3.00;;;9.20;99.90;;;;;;5056773;28;20497;-67
2023/04/01 09:07:14;;;;;;;3.10;2.50;;;9.30;99.90;;;;;;5055042;28;20800;-69
2023/04/01 09:10:18;;;;;;;2.67;2.33;;;9.30;99.90;;;;;;5041871;28;20479;-66
2023/04/01 09:13:14;;;;;;;3.53;2.47;;;9.40;99.90;;;;;;5035251;28;20465;-65
2023/04/01 09:16:07;;;;;;;2.93;2.30;;;9.40;99.90;;;;;;5034260;28;20471;-69
2023/04/01 09:19:00;;;;;;;3.60;3.00;;;9.50;99.90;;;;;;5028120;28;20449;-69
2023/04/01 09:22:03;;;;;;;2.90;2.47;;;9.40;99.90;;;;;;5032959;28;20519;-68
2023/04/01 09:24:56;;;;;;;3.10;2.37;;;9.40;99.90;;;;;;5037836;28;20461;-68
2023/04/01 09:27:30;;;;;;;3.53;3.23;;;9.40;99.90;;;;;;5072627;28;20469;-69
2023/04/01 09:30:30;;;;;;;4.10;3.70;;;9.50;99.90;;;;;;5076116;28;20490;-70
2023/04/01 09:33:41;;;;;;;4.57;4.17;;;9.40;99.90;;;;;;5074991;28;20432;-69
2023/04/01 09:36:22;;;;;;;3.90;3.50;;;9.40;99.90;;;;;;5075757;28;20461;-70
2023/04/01 09:38:58;;;;;;;3.97;3.47;;;9.40;99.90;;;;;;5076650;28;20496;-69
2023/04/01 09:41:31;;;;;;;5.43;4.63;;;9.40;99.90;;;;;;5077845;28;20461;-69
2023/04/01 09:44:15;;;;;;;4.43;4.03;;;9.40;99.90;;;;;;5075799;28;20492;-70
2023/04/01 09:47:02;;;;;;;4.97;4.47;;;9.30;99.90;;;;;;5061994;28;20458;-69
2023/04/01 09:50:05;;;;;;;5.20;4.50;;;9.40;99.90;;;;;;5051933;28;20462;-70
2023/04/01 09:52:45;;;;;;;5.90;5.30;;;9.30;99.90;;;;;;5051840;28;20466;-68
2023/04/01 09:55:51;;;;;;;6.53;5.93;;;9.30;99.90;;;;;;5053607;28;20447;-68
2023/04/01 09:58:56;;;;;;;6.40;5.80;;;9.30;99.90;;;;;;5054447;28;20887;-69
2023/04/01 10:01:55;;;;;;;9.07;6.53;;;9.30;99.90;;;;;;5025266;28;20753;-68
2023/04/01 10:05:05;;;;;;;7.53;6.83;;;9.50;99.90;;;;;;5054899;28;20490;-68
2023/04/01 10:08:20;;;;;;;6.83;6.20;;;9.50;99.90;;;;;;5055801;28;20531;-68
2023/04/01 10:11:28;;;;;;;11.30;7.43;;;9.50;99.90;;;;;;5055142;28;20561;-67
2023/04/01 10:14:25;;;;;;;7.77;7.00;;;9.50;99.90;;;;;;5054109;28;20443;-67
2023/04/01 10:17:54;;;;;;;7.80;7.00;;;9.50;99.90;;;;;;5051717;28;20841;-67
2023/04/01 10:20:47;;;;;;;8.77;7.87;;;9.60;99.90;;;;;;4993483;28;20853;-68
2023/04/01 10:23:46;;;;;;;8.30;7.50;;;9.60;99.90;;;;;;5050915;28;20490;-69
2023/04/01 10:26:40;;;;;;;8.73;7.83;;;9.70;99.90;;;;;;5052790;28;20459;-68
2023/04/01 10:29:58;;;;;;;8.47;7.10;;;9.80;99.90;;;;;;5052573;28;20457;-69
2023/04/01 10:32:58;;;;;;;6.00;5.30;;;10.00;99.90;;;;;;4993144;28;20467;-68
2023/04/01 10:35:47;;;;;;;6.93;5.10;;;10.20;99.90;;;;;;5054069;28;20480;-65
2023/04/01 10:38:52;;;;;;;6.47;5.87;;;10.10;99.90;;;;;;5051039;28;20547;-65
2023/04/01 10:42:07;;;;;;;6.40;5.80;;;10.00;99.90;;;;;;5044980;28;20462;-65
2023/04/01 10:45:16;;;;;;;6.83;5.40;;;9.90;99.90;;;;;;5038989;28;20794;-64
2023/04/01 10:48:31;;;;;;;8.43;7.60;;;9.80;99.90;;;;;;5058307;28;20922;-65
2023/04/01 10:51:37;;;;;;;10.87;8.70;;;9.90;99.90;;;;;;4987745;28;20458;-65
2023/04/01 10:54:36;;;;;;;8.83;7.93;;;9.90;99.90;;;;;;5048240;28;21510;-63
2023/04/01 10:57:17;;;;;;;7.30;6.50;;;9.90;99.90;;;;;;5058731;28;20462;-65
2023/04/01 11:00:30;;;;;;;7.27;6.43;;;9.90;99.90;;;;;;5055869;28;20548;-67
2023/04/01 11:03:44;;;;;;;6.50;5.90;;;10.00;99.90;;;;;;5056139;28;20481;-66
2023/04/01 11:06:44;;;;;;;6.87;5.70;;;10.00;99.90;;;;;;5057325;28;20466;-66
2023/04/01 11:09:48;;;;;;;6.13;5.53;;;10.00;99.90;;;;;;5051333;28;20972;-65
2023/04/01 11:12:47;;;;;;;5.20;4.73;;;10.00;99.90;;;;;;5058275;28;20457;-65
2023/04/01 11:15:46;;;;;;;5.20;4.10;;;10.10;99.90;;;;;;5055980;28;20478;-65
2023/04/01 11:18:51;;;;;;;4.90;4.40;;;10.00;99.90;;;;;;5054153;28;20779;-66
2023/04/01 11:21:55;;;;;;;4.70;4.30;;;10.10;99.90;;;;;;5054170;28;20457;-65
2023/04/01 11:24:57;;;;;;;7.60;4.70;;;10.00;99.90;;;;;;5053830;28;20497;-66
2023/04/01 11:27:45;;;;;;;6.67;4.30;;;10.10;99.90;;;;;;5052294;28;20461;-65
2023/04/01 11:30:42;;;;;;;4.30;3.90;;;10.20;99.90;;;;;;5056127;28;20489;-66
2023/04/01 11:33:21;;;;;;;5.97;5.40;;;10.30;99.90;;;;;;5055994;28;20451;-66
2023/04/01 11:36:12;;;;;;;4.70;4.07;;;10.40;99.90;;;;;;5056795;28;20481;-66
2023/04/01 11:39:12;;;;;;;5.13;4.63;;;10.40;99.90;;;;;;5049153;28;20461;-66
2023/04/01 11:41:47;;;;;;;6.50;4.63;;;10.30;99.90;;;;;;5049921;28;20462;-66
2023/04/01 11:44:22;;;;;;;3.90;3.50;;;10.20;99.90;;;;;;5055757;28;20500;-67
2023/04/01 11:47:13;;;;;;;4.80;3.80;;;10.20;99.90;;;;;;5056860;28;20462;-66
2023/04/01 11:49:54;;;;;;;9.83;8.90;;;10.10;99.90;;;;;;5056654;28;20497;-65
2023/04/01 11:52:42;;;;;;;6.13;5.53;;;10.00;99.90;;;;;;5058508;28;20899;-65
2023/04/01 11:55:29;;;;;;;5.63;5.13;;;10.10;99.90;;;;;;5056204;28;20463;-65
2023/04/01 11:58:27;;;;;;;4.83;4.37;;;10.00;99.90;;;;;;5056668;28;20462;-65
2023/04/01 12:01:07;;;;;;;5.20;4.10;;;10.10;99.90;;;;;;5058294;28;20472;-65
2023/04/01 12:04:15;;;;;;;8.03;5.13;;;10.10;99.90;;;;;;5056229;28;20492;-66
2023/04/01 12:06:50;;;;;;;5.30;4.80;;;10.10;99.90;;;;;;5013714;28;20462;-65
2023/04/01 12:09:26;;;;;;;6.20;5.60;;;10.00;99.90;;;;;;5059086;28;20436;-66
2023/04/01 12:12:07;;;;;;;6.13;5.47;;;10.00;99.90;;;;;;5057240;28;20917;-66
2023/04/01 12:14:43;;;;;;;5.13;4.60;;;10.00;99.90;;;;;;5058323;28;20751;-66
2023/04/01 12:17:33;;;;;;;5.83;5.30;;;10.00;99.90;;;;;;5058377;28;20466;-66
2023/04/01 12:20:13;;;;;;;5.67;5.07;;;10.00;99.90;;;;;;5056667;28;20439;-65
2023/04/01 12:22:50;;;;;;;5.13;4.70;;;10.00;99.90;;;;;;5057328;28;20459;-64
2023/04/01 12:25:53;;;;;;;6.37;5.13;;;10.10;99.90;;;;;;5057030;28;20424;-65
2023/04/01 12:28:31;;;;;;;5.20;4.70;;;10.00;99.90;;;;;;5057020;28;20427;-66
2023/04/01 12:31:15;;;;;;;5.93;5.37;;;10.10;99.90;;;;;;5056091;28;20556;-65
2023/04/01 12:34:22;;;;;;;6.47;5.30;;;10.10;99.90;;;;;;5046988;28;20914;-64
2023/04/01 12:36:59;;;;;;;6.07;5.43;;;10.20;99.90;;;;;;5056373;28;20490;-64
2023/04/01 12:39:55;;;;;;;6.00;5.27;;;10.30;99.90;;;;;;5057957;28;20552;-64
2023/04/01 12:42:38;;;;;;;9.10;6.40;;;10.30;99.90;;;;;;5058503;28;20478;-66
2023/04/01 12:45:31;;;;;;;8.00;7.17;;;10.20;99.90;;;;;;5056184;28;20482;-67
2023/04/01 12:48:27;;;;;;;6.20;5.60;;;10.10;99.90;;;;;;5051157;28;20833;-65
2023/04/01 12:51:21;;;;;;;7.27;6.57;;;10.00;99.90;;;;;;5057151;28;20462;-65
2023/04/01 12:54:16;;;;;;;9.10;7.50;;;10.00;99.90;;;;;;5021870;28;20796;-65
2023/04/01 12:56:57;;;;;;;7.60;6.80;;;10.00;99.90;;;;;;5044854;28;20467;-64
2023/04/01 12:59:51;;;;;;;9.43;7.40;;;10.00;99.90;;;;;;5055451;28;20461;-65
2023/04/01 13:02:30;;;;;;;8.53;7.73;;;10.00;99.90;;;;;;5045599;28;20469;-65
2023/04/01 13:05:13;;;;;;;8.70;7.80;;;9.90;99.90;;;;;;5055273;28;20490;-65
2023/04/01 13:07:58;;;;;;;9.30;8.30;;;9.90;99.90;;;;;;5054533;28;20441;-65
2023/04/01 13:10:51;;;;;;;9.87;8.70;;;9.90;99.90;;;;;;5055624;28;20455;-68
2023/04/01 13:14:13;;;;;;;9.07;8.17;;;9.90;99.90;;;;;;5055781;28;20454;-68
2023/04/01 13:16:43;;;;;;;9.50;8.60;;;9.90;99.90;;;;;;4997684;28;20465;-65
2023/04/01 13:19:16;;;;;;;10.27;9.27;;;9.90;99.90;;;;;;5055225;28;20465;-66
2023/04/01 13:21:55;;;;;;;10.37;9.30;;;10.00;99.90;;;;;;5054768;28;20461;-66
2023/04/01 13:24:40;;;;;;;9.70;8.30;;;10.00;99.90;;;;;;5051460;28;20794;-64
2023/04/01 13:27:15;;;;;;;9.60;8.17;;;10.00;99.90;;;;;;5056615;28;20457;-64
2023/04/01 13:29:47;;;;;;;10.10;9.10;;;9.90;99.90;;;;;;5054762;28;20962;-65
2023/04/01 13:32:28;;;;;;;11.20;9.97;;;9.90;99.90;;;;;;5054013;28;20798;-67
2023/04/01 13:35:11;;;;;;;11.60;9.27;;;9.80;99.90;;;;;;5073641;28;20475;-68
2023/04/01 13:37:55;;;;;;;9.87;8.80;;;9.80;99.90;;;;;;5062381;28;20966;-69
2023/04/01 13:40:40;;;;;;;10.20;9.20;;;9.90;99.90;;;;;;5048835;28;20552;-69
2023/04/01 13:43:17;;;;;;;10.67;9.23;;;9.90;99.90;;;;;;5050832;28;20573;-66
2023/04/01 13:46:08;;;;;;;10.83;9.73;;;10.00;99.90;;;;;;5052599;28;21466;-65
2023/04/01 13:48:57;;;;;;;11.13;9.93;;;10.00;99.90;;;;;;5051353;28;20541;-66
2023/04/01 13:51:58;;;;;;;11.80;10.20;;;10.00;99.90;;;;;;5052433;28;20647;-67
2023/04/01 13:55:10;;;;;;;11.40;10.20;;;10.20;99.90;;;;;;5052697;28;20508;-65
2023/04/01 13:57:54;;;;;;;12.40;9.00;;;10.00;99.90;;;;;;5022481;28;20994;-65